sensor_id;sensor_type;location;lat;lon;timestamp;P1;durP1;ratioP1;P2;durP2;ratioP2
80179;SDS011;69505;52.134;5.438;2023-10-19T00:00:56;8.35;;;5.75;;
80179;SDS011;69505;52.134;5.438;2023-10-19T00:03:23;6.65;;;5.55;;
80179;SDS011;69505;52.134;5.438;2023-10-19T00:05:50;9.88;;;6.22;;
80179;SDS011;69505;52.134;5.438;2023-10-19T00:08:17;7.68;;;4.88;;
80179;SDS011;69505;52.134;5.438;2023-10-19T00:10:48;7.22;;;6.40;;
80179;SDS011;69505;52.134;5.438;2023-10-19T00:13:37;7.90;;;6.55;;
80179;SDS011;69505;52.134;5.438;2023-10-19T00:16:06;8.52;;;6.22;;
80179;SDS011;69505;52.134;5.438;2023-10-19T00:18:38;8.77;;;6.75;;
80179;SDS011;69505;52.134;5.438;2023-10-19T00:21:09;7.57;;;6.50;;
80179;SDS011;69505;52.134;5.438;2023-10-19T00:23:53;11.82;;;7.13;;
80179;SDS011;69505;52.134;5.438;2023-10-19T00:26:25;8.20;;;7.03;;
80179;SDS011;69505;52.134;5.438;2023-10-19T00:28:53;8.57;;;7.50;;
80179;SDS011;69505;52.134;5.438;2023-10-19T00:31:22;8.25;;;6.82;;
80179;SDS011;69505;52.134;5.438;2023-10-19T00:33:49;9.45;;;6.50;;
80179;SDS011;69505;52.134;5.438;2023-10-19T00:36:21;8.75;;;6.70;;
80179;SDS011;69505;52.134;5.438;2023-10-19T00:38:49;9.13;;;7.18;;
80179;SDS011;69505;52.134;5.438;2023-10-19T00:41:17;10.55;;;6.93;;
80179;SDS011;69505;52.134;5.438;2023-10-19T00:44:04;10.05;;;7.82;;
80179;SDS011;69505;52.134;5.438;2023-10-19T00:46:37;8.95;;;6.43;;
80179;SDS011;69505;52.134;5.438;2023-10-19T00:49:07;9.15;;;7.40;;
80179;SDS011;69505;52.134;5.438;2023-10-19T00:51:37;9.02;;;7.32;;
80179;SDS011;69505;52.134;5.438;2023-10-19T00:54:43;10.32;;;7.78;;
80179;SDS011;69505;52.134;5.438;2023-10-19T00:57:12;10.68;;;7.57;;
80179;SDS011;69505;52.134;5.438;2023-10-19T00:59:40;9.80;;;7.40;;
80179;SDS011;69505;52.134;5.438;2023-10-19T01:02:20;8.30;;;7.28;;
80179;SDS011;69505;52.134;5.438;2023-10-19T01:04:49;9.75;;;7.32;;
80179;SDS011;69505;52.134;5.438;2023-10-19T01:07:20;9.35;;;7.30;;
80179;SDS011;69505;52.134;5.438;2023-10-19T01:09:54;10.43;;;8.07;;
80179;SDS011;69505;52.134;5.438;2023-10-19T01:17:34;12.07;;;7.20;;
80179;SDS011;69505;52.134;5.438;2023-10-19T01:20:13;9.73;;;7.80;;
80179;SDS011;69505;52.134;5.438;2023-10-19T01:22:55;11.05;;;8.68;;
80179;SDS011;69505;52.134;5.438;2023-10-19T01:28:08;9.88;;;7.68;;
80179;SDS011;69505;52.134;5.438;2023-10-19T01:30:36;9.80;;;7.18;;
80179;SDS011;69505;52.134;5.438;2023-10-19T01:33:04;11.38;;;8.57;;
80179;SDS011;69505;52.134;5.438;2023-10-19T01:38:24;10.25;;;7.45;;
80179;SDS011;69505;52.134;5.438;2023-10-19T01:40:51;10.40;;;8.38;;
80179;SDS011;69505;52.134;5.438;2023-10-19T01:43:20;10.15;;;8.05;;
80179;SDS011;69505;52.134;5.438;2023-10-19T01:45:47;12.18;;;9.32;;
80179;SDS011;69505;52.134;5.438;2023-10-19T01:48:14;12.45;;;8.65;;
80179;SDS011;69505;52.134;5.438;2023-10-19T01:50:42;9.90;;;8.02;;
80179;SDS011;69505;52.134;5.438;2023-10-19T01:53:09;11.63;;;8.15;;
80179;SDS011;69505;52.134;5.438;2023-10-19T01:55:42;12.27;;;9.10;;
80179;SDS011;69505;52.134;5.438;2023-10-19T01:58:10;10.05;;;8.73;;
80179;SDS011;69505;52.134;5.438;2023-10-19T02:00:36;14.52;;;9.45;;
80179;SDS011;69505;52.134;5.438;2023-10-19T02:03:07;13.90;;;9.43;;
80179;SDS011;69505;52.134;5.438;2023-10-19T02:05:34;12.18;;;8.23;;
80179;SDS011;69505;52.134;5.438;2023-10-19T02:08:08;11.48;;;9.13;;
80179;SDS011;69505;52.134;5.438;2023-10-19T02:10:34;13.30;;;8.07;;
80179;SDS011;69505;52.134;5.438;2023-10-19T02:13:02;9.20;;;7.10;;
80179;SDS011;69505;52.134;5.438;2023-10-19T02:15:33;9.50;;;6.88;;
80179;SDS011;69505;52.134;5.438;2023-10-19T02:18:03;9.88;;;7.85;;
80179;SDS011;69505;52.134;5.438;2023-10-19T02:20:31;10.18;;;8.27;;
80179;SDS011;69505;52.134;5.438;2023-10-19T02:23:09;9.85;;;7.82;;
80179;SDS011;69505;52.134;5.438;2023-10-19T02:25:36;9.30;;;7.72;;
80179;SDS011;69505;52.134;5.438;2023-10-19T02:28:03;11.93;;;8.70;;
80179;SDS011;69505;52.134;5.438;2023-10-19T02:30:33;12.30;;;8.75;;
80179;SDS011;69505;52.134;5.438;2023-10-19T02:33:02;13.88;;;8.25;;
80179;SDS011;69505;52.134;5.438;2023-10-19T02:35:32;11.40;;;8.15;;
80179;SDS011;69505;52.134;5.438;2023-10-19T02:38:01;13.52;;;8.25;;
80179;SDS011;69505;52.134;5.438;2023-10-19T02:40:30;9.15;;;7.70;;
80179;SDS011;69505;52.134;5.438;2023-10-19T02:42:59;14.07;;;7.97;;
80179;SDS011;69505;52.134;5.438;2023-10-19T02:45:29;12.88;;;8.07;;
80179;SDS011;69505;52.134;5.438;2023-10-19T02:47:57;11.23;;;7.93;;
80179;SDS011;69505;52.134;5.438;2023-10-19T02:50:25;9.80;;;7.20;;
80179;SDS011;69505;52.134;5.438;2023-10-19T02:52:52;13.25;;;7.53;;
80179;SDS011;69505;52.134;5.438;2023-10-19T02:55:19;8.13;;;6.68;;
80179;SDS011;69505;52.134;5.438;2023-10-19T02:57:50;10.15;;;6.72;;
80179;SDS011;69505;52.134;5.438;2023-10-19T03:00:17;9.00;;;6.47;;
80179;SDS011;69505;52.134;5.438;2023-10-19T03:02:49;10.02;;;7.07;;
80179;SDS011;69505;52.134;5.438;2023-10-19T03:05:18;12.13;;;7.32;;
80179;SDS011;69505;52.134;5.438;2023-10-19T03:07:45;8.13;;;6.40;;
80179;SDS011;69505;52.134;5.438;2023-10-19T03:10:11;9.48;;;6.63;;
80179;SDS011;69505;52.134;5.438;2023-10-19T03:12:50;10.65;;;7.07;;
80179;SDS011;69505;52.134;5.438;2023-10-19T03:15:17;9.00;;;7.45;;
80179;SDS011;69505;52.134;5.438;2023-10-19T03:17:47;9.07;;;7.20;;
80179;SDS011;69505;52.134;5.438;2023-10-19T03:20:15;8.50;;;6.53;;
80179;SDS011;69505;52.134;5.438;2023-10-19T03:22:44;9.90;;;6.53;;
80179;SDS011;69505;52.134;5.438;2023-10-19T03:25:13;10.05;;;6.53;;
80179;SDS011;69505;52.134;5.438;2023-10-19T03:27:58;10.00;;;6.03;;
80179;SDS011;69505;52.134;5.438;2023-10-19T03:30:35;8.55;;;6.40;;
80179;SDS011;69505;52.134;5.438;2023-10-19T03:33:06;9.20;;;6.70;;
80179;SDS011;69505;52.134;5.438;2023-10-19T03:35:38;10.02;;;5.20;;
80179;SDS011;69505;52.134;5.438;2023-10-19T03:38:08;11.00;;;6.85;;
80179;SDS011;69505;52.134;5.438;2023-10-19T03:40:41;7.88;;;6.47;;
80179;SDS011;69505;52.134;5.438;2023-10-19T03:43:07;9.63;;;6.53;;
80179;SDS011;69505;52.134;5.438;2023-10-19T03:45:44;8.48;;;6.28;;
80179;SDS011;69505;52.134;5.438;2023-10-19T03:48:19;8.07;;;6.38;;
80179;SDS011;69505;52.134;5.438;2023-10-19T03:51:00;7.22;;;5.57;;
80179;SDS011;69505;52.134;5.438;2023-10-19T03:53:28;12.80;;;5.95;;
80179;SDS011;69505;52.134;5.438;2023-10-19T03:55:56;8.80;;;5.65;;
80179;SDS011;69505;52.134;5.438;2023-10-19T03:58:23;7.35;;;5.53;;
80179;SDS011;69505;52.134;5.438;2023-10-19T04:00:50;6.88;;;5.45;;
80179;SDS011;69505;52.134;5.438;2023-10-19T04:03:17;7.25;;;5.70;;
80179;SDS011;69505;52.134;5.438;2023-10-19T04:05:44;10.18;;;5.60;;
80179;SDS011;69505;52.134;5.438;2023-10-19T04:08:15;8.85;;;5.65;;
80179;SDS011;69505;52.134;5.438;2023-10-19T04:10:46;9.48;;;5.78;;
80179;SDS011;69505;52.134;5.438;2023-10-19T04:13:33;7.45;;;4.43;;
80179;SDS011;69505;52.134;5.438;2023-10-19T04:16:02;7.72;;;4.57;;
80179;SDS011;69505;52.134;5.438;2023-10-19T04:18:29;6.82;;;3.58;;
80179;SDS011;69505;52.134;5.438;2023-10-19T04:20:56;9.45;;;4.32;;
80179;SDS011;69505;52.134;5.438;2023-10-19T04:23:23;7.68;;;4.63;;
80179;SDS011;69505;52.134;5.438;2023-10-19T04:25:56;5.25;;;4.15;;
80179;SDS011;69505;52.134;5.438;2023-10-19T04:28:24;4.55;;;3.13;;
80179;SDS011;69505;52.134;5.438;2023-10-19T04:30:57;5.88;;;3.65;;
80179;SDS011;69505;52.134;5.438;2023-10-19T04:33:30;10.00;;;3.75;;
80179;SDS011;69505;52.134;5.438;2023-10-19T04:35:58;5.38;;;3.22;;
80179;SDS011;69505;52.134;5.438;2023-10-19T04:38:26;5.07;;;3.20;;
80179;SDS011;69505;52.134;5.438;2023-10-19T04:40:54;6.22;;;3.60;;
80179;SDS011;69505;52.134;5.438;2023-10-19T04:43:21;5.35;;;3.47;;
80179;SDS011;69505;52.134;5.438;2023-10-19T04:45:48;4.93;;;2.80;;
80179;SDS011;69505;52.134;5.438;2023-10-19T04:48:14;6.32;;;3.08;;
80179;SDS011;69505;52.134;5.438;2023-10-19T04:50:41;5.22;;;3.03;;
80179;SDS011;69505;52.134;5.438;2023-10-19T04:53:08;4.15;;;2.85;;
80179;SDS011;69505;52.134;5.438;2023-10-19T04:55:34;5.95;;;3.00;;
80179;SDS011;69505;52.134;5.438;2023-10-19T04:58:01;6.22;;;2.60;;
80179;SDS011;69505;52.134;5.438;2023-10-19T05:00:28;5.03;;;2.05;;
80179;SDS011;69505;52.134;5.438;2023-10-19T05:02:54;4.85;;;2.25;;
80179;SDS011;69505;52.134;5.438;2023-10-19T05:05:21;4.75;;;2.75;;
80179;SDS011;69505;52.134;5.438;2023-10-19T05:07:48;3.20;;;2.38;;
80179;SDS011;69505;52.134;5.438;2023-10-19T05:10:15;5.90;;;2.22;;
80179;SDS011;69505;52.134;5.438;2023-10-19T05:12:42;3.97;;;3.03;;
80179;SDS011;69505;52.134;5.438;2023-10-19T05:15:08;3.70;;;2.35;;
80179;SDS011;69505;52.134;5.438;2023-10-19T05:17:35;5.00;;;2.50;;
80179;SDS011;69505;52.134;5.438;2023-10-19T05:20:02;2.40;;;2.08;;
80179;SDS011;69505;52.134;5.438;2023-10-19T05:22:32;7.53;;;2.28;;
80179;SDS011;69505;52.134;5.438;2023-10-19T05:24:59;3.00;;;2.17;;
80179;SDS011;69505;52.134;5.438;2023-10-19T05:27:27;3.90;;;1.42;;
80179;SDS011;69505;52.134;5.438;2023-10-19T05:29:53;8.43;;;2.10;;
80179;SDS011;69505;52.134;5.438;2023-10-19T05:32:20;4.05;;;1.88;;
80179;SDS011;69505;52.134;5.438;2023-10-19T05:34:47;4.10;;;1.98;;
80179;SDS011;69505;52.134;5.438;2023-10-19T05:37:14;4.55;;;1.63;;
80179;SDS011;69505;52.134;5.438;2023-10-19T05:39:43;2.75;;;1.65;;
80179;SDS011;69505;52.134;5.438;2023-10-19T05:42:10;5.22;;;1.75;;
80179;SDS011;69505;52.134;5.438;2023-10-19T05:44:37;3.22;;;1.13;;
80179;SDS011;69505;52.134;5.438;2023-10-19T05:47:03;5.97;;;1.70;;
80179;SDS011;69505;52.134;5.438;2023-10-19T05:49:32;5.28;;;1.27;;
80179;SDS011;69505;52.134;5.438;2023-10-19T05:51:59;5.63;;;1.75;;
80179;SDS011;69505;52.134;5.438;2023-10-19T05:54:25;2.22;;;1.77;;
80179;SDS011;69505;52.134;5.438;2023-10-19T05:56:53;2.63;;;2.10;;
80179;SDS011;69505;52.134;5.438;2023-10-19T05:59:20;4.50;;;2.15;;
80179;SDS011;69505;52.134;5.438;2023-10-19T06:01:47;4.47;;;1.77;;
80179;SDS011;69505;52.134;5.438;2023-10-19T06:04:14;5.30;;;1.95;;
80179;SDS011;69505;52.134;5.438;2023-10-19T06:06:46;5.10;;;1.70;;
80179;SDS011;69505;52.134;5.438;2023-10-19T06:09:12;3.50;;;1.70;;
80179;SDS011;69505;52.134;5.438;2023-10-19T06:11:39;6.50;;;1.63;;
80179;SDS011;69505;52.134;5.438;2023-10-19T06:14:08;4.55;;;1.70;;
80179;SDS011;69505;52.134;5.438;2023-10-19T06:16:36;4.60;;;1.58;;
80179;SDS011;69505;52.134;5.438;2023-10-19T06:19:03;3.42;;;1.65;;
80179;SDS011;69505;52.134;5.438;2023-10-19T06:21:29;3.17;;;1.45;;
80179;SDS011;69505;52.134;5.438;2023-10-19T06:23:57;8.25;;;2.15;;
80179;SDS011;69505;52.134;5.438;2023-10-19T06:26:24;3.50;;;1.70;;
80179;SDS011;69505;52.134;5.438;2023-10-19T06:28:51;4.18;;;1.70;;
80179;SDS011;69505;52.134;5.438;2023-10-19T06:31:23;2.50;;;2.13;;
80179;SDS011;69505;52.134;5.438;2023-10-19T06:33:50;3.53;;;1.58;;
80179;SDS011;69505;52.134;5.438;2023-10-19T06:36:17;4.10;;;1.60;;
80179;SDS011;69505;52.134;5.438;2023-10-19T06:38:45;5.50;;;1.77;;
80179;SDS011;69505;52.134;5.438;2023-10-19T06:41:13;8.07;;;1.88;;
80179;SDS011;69505;52.134;5.438;2023-10-19T06:43:40;5.97;;;1.70;;
80179;SDS011;69505;52.134;5.438;2023-10-19T06:46:07;5.68;;;1.95;;
80179;SDS011;69505;52.134;5.438;2023-10-19T06:48:38;8.30;;;2.05;;
80179;SDS011;69505;52.134;5.438;2023-10-19T06:51:05;4.00;;;2.10;;
80179;SDS011;69505;52.134;5.438;2023-10-19T06:53:32;6.90;;;2.20;;
80179;SDS011;69505;52.134;5.438;2023-10-19T06:55:59;3.05;;;1.88;;
80179;SDS011;69505;52.134;5.438;2023-10-19T06:58:27;4.55;;;1.42;;
80179;SDS011;69505;52.134;5.438;2023-10-19T07:00:54;6.05;;;1.83;;
80179;SDS011;69505;52.134;5.438;2023-10-19T07:03:26;4.68;;;1.92;;
80179;SDS011;69505;52.134;5.438;2023-10-19T07:05:54;3.83;;;2.22;;
80179;SDS011;69505;52.134;5.438;2023-10-19T07:08:22;3.92;;;2.05;;
80179;SDS011;69505;52.134;5.438;2023-10-19T07:10:49;8.32;;;2.08;;
80179;SDS011;69505;52.134;5.438;2023-10-19T07:13:16;4.35;;;1.70;;
80179;SDS011;69505;52.134;5.438;2023-10-19T07:15:46;4.10;;;1.67;;
80179;SDS011;69505;52.134;5.438;2023-10-19T07:18:15;5.35;;;1.80;;
80179;SDS011;69505;52.134;5.438;2023-10-19T07:20:42;5.63;;;1.77;;
80179;SDS011;69505;52.134;5.438;2023-10-19T07:23:09;3.63;;;2.03;;
80179;SDS011;69505;52.134;5.438;2023-10-19T07:25:46;5.45;;;2.15;;
80179;SDS011;69505;52.134;5.438;2023-10-19T07:28:21;6.07;;;1.92;;
80179;SDS011;69505;52.134;5.438;2023-10-19T07:30:49;6.22;;;2.20;;
80179;SDS011;69505;52.134;5.438;2023-10-19T07:33:18;6.32;;;2.22;;
80179;SDS011;69505;52.134;5.438;2023-10-19T07:35:47;5.70;;;2.45;;
80179;SDS011;69505;52.134;5.438;2023-10-19T07:38:21;5.03;;;2.47;;
80179;SDS011;69505;52.134;5.438;2023-10-19T07:40:49;3.47;;;1.80;;
80179;SDS011;69505;52.134;5.438;2023-10-19T07:43:15;4.25;;;1.70;;
80179;SDS011;69505;52.134;5.438;2023-10-19T07:45:42;5.75;;;2.10;;
80179;SDS011;69505;52.134;5.438;2023-10-19T07:48:09;6.28;;;2.47;;
80179;SDS011;69505;52.134;5.438;2023-10-19T07:50:39;3.70;;;1.77;;
80179;SDS011;69505;52.134;5.438;2023-10-19T07:53:09;5.50;;;1.92;;
80179;SDS011;69505;52.134;5.438;2023-10-19T07:55:37;7.90;;;2.33;;
80179;SDS011;69505;52.134;5.438;2023-10-19T07:58:05;4.18;;;2.30;;
80179;SDS011;69505;52.134;5.438;2023-10-19T08:00:33;3.53;;;2.00;;
80179;SDS011;69505;52.134;5.438;2023-10-19T08:03:01;5.43;;;2.05;;
80179;SDS011;69505;52.134;5.438;2023-10-19T08:05:29;6.63;;;2.22;;
80179;SDS011;69505;52.134;5.438;2023-10-19T08:07:56;7.18;;;2.20;;
80179;SDS011;69505;52.134;5.438;2023-10-19T08:10:27;4.55;;;1.98;;
80179;SDS011;69505;52.134;5.438;2023-10-19T08:12:54;5.47;;;2.05;;
80179;SDS011;69505;52.134;5.438;2023-10-19T08:15:22;6.72;;;2.05;;
80179;SDS011;69505;52.134;5.438;2023-10-19T08:17:49;3.35;;;1.25;;
80179;SDS011;69505;52.134;5.438;2023-10-19T08:20:17;4.57;;;2.15;;
80179;SDS011;69505;52.134;5.438;2023-10-19T08:22:52;5.00;;;1.98;;
80179;SDS011;69505;52.134;5.438;2023-10-19T08:25:25;7.60;;;1.67;;
80179;SDS011;69505;52.134;5.438;2023-10-19T08:28:15;7.40;;;2.05;;
80179;SDS011;69505;52.134;5.438;2023-10-19T08:30:42;5.82;;;1.67;;
80179;SDS011;69505;52.134;5.438;2023-10-19T08:33:11;6.75;;;2.60;;
80179;SDS011;69505;52.134;5.438;2023-10-19T08:35:40;4.47;;;2.40;;
80179;SDS011;69505;52.134;5.438;2023-10-19T08:38:07;6.78;;;2.72;;
80179;SDS011;69505;52.134;5.438;2023-10-19T08:40:38;5.25;;;2.20;;
80179;SDS011;69505;52.134;5.438;2023-10-19T08:43:06;5.85;;;2.40;;
80179;SDS011;69505;52.134;5.438;2023-10-19T08:45:34;5.38;;;2.38;;
80179;SDS011;69505;52.134;5.438;2023-10-19T08:48:01;6.32;;;2.05;;
80179;SDS011;69505;52.134;5.438;2023-10-19T08:50:32;5.55;;;2.10;;
80179;SDS011;69505;52.134;5.438;2023-10-19T08:53:05;5.07;;;1.88;;
80179;SDS011;69505;52.134;5.438;2023-10-19T08:55:35;9.32;;;2.30;;
80179;SDS011;69505;52.134;5.438;2023-10-19T08:58:15;5.20;;;1.95;;
80179;SDS011;69505;52.134;5.438;2023-10-19T09:03:14;4.15;;;1.92;;
80179;SDS011;69505;52.134;5.438;2023-10-19T09:05:43;3.97;;;1.80;;
80179;SDS011;69505;52.134;5.438;2023-10-19T09:08:16;6.35;;;2.45;;
80179;SDS011;69505;52.134;5.438;2023-10-19T09:10:45;5.57;;;2.53;;
80179;SDS011;69505;52.134;5.438;2023-10-19T09:13:13;4.72;;;2.25;;
80179;SDS011;69505;52.134;5.438;2023-10-19T09:15:42;7.30;;;2.30;;
80179;SDS011;69505;52.134;5.438;2023-10-19T09:18:16;11.63;;;2.47;;
80179;SDS011;69505;52.134;5.438;2023-10-19T09:20:46;6.07;;;2.28;;
80179;SDS011;69505;52.134;5.438;2023-10-19T09:23:22;6.40;;;2.45;;
80179;SDS011;69505;52.134;5.438;2023-10-19T09:25:51;4.20;;;2.17;;
80179;SDS011;69505;52.134;5.438;2023-10-19T09:28:22;10.82;;;2.30;;
80179;SDS011;69505;52.134;5.438;2023-10-19T09:30:51;7.13;;;2.47;;
80179;SDS011;69505;52.134;5.438;2023-10-19T09:33:18;5.18;;;2.17;;
80179;SDS011;69505;52.134;5.438;2023-10-19T09:35:48;6.75;;;2.60;;
80179;SDS011;69505;52.134;5.438;2023-10-19T09:38:17;7.03;;;2.28;;
80179;SDS011;69505;52.134;5.438;2023-10-19T09:40:52;5.82;;;2.75;;
80179;SDS011;69505;52.134;5.438;2023-10-19T09:43:22;5.65;;;2.30;;
80179;SDS011;69505;52.134;5.438;2023-10-19T09:46:09;5.80;;;1.88;;
80179;SDS011;69505;52.134;5.438;2023-10-19T09:48:41;6.30;;;2.45;;
80179;SDS011;69505;52.134;5.438;2023-10-19T09:51:09;8.25;;;2.40;;
80179;SDS011;69505;52.134;5.438;2023-10-19T09:53:39;8.20;;;2.42;;
80179;SDS011;69505;52.134;5.438;2023-10-19T09:56:06;7.05;;;2.25;;
80179;SDS011;69505;52.134;5.438;2023-10-19T09:58:46;3.58;;;2.05;;
80179;SDS011;69505;52.134;5.438;2023-10-19T10:01:15;8.93;;;2.78;;
80179;SDS011;69505;52.134;5.438;2023-10-19T10:03:43;6.32;;;2.65;;
80179;SDS011;69505;52.134;5.438;2023-10-19T10:06:13;7.45;;;2.53;;
80179;SDS011;69505;52.134;5.438;2023-10-19T10:08:46;7.05;;;2.55;;
80179;SDS011;69505;52.134;5.438;2023-10-19T10:11:24;11.35;;;2.75;;
80179;SDS011;69505;52.134;5.438;2023-10-19T10:13:56;6.35;;;2.20;;
80179;SDS011;69505;52.134;5.438;2023-10-19T10:16:24;7.25;;;2.38;;
80179;SDS011;69505;52.134;5.438;2023-10-19T10:18:56;6.53;;;2.15;;
80179;SDS011;69505;52.134;5.438;2023-10-19T10:21:28;9.88;;;2.40;;
80179;SDS011;69505;52.134;5.438;2023-10-19T10:23:57;7.47;;;2.25;;
80179;SDS011;69505;52.134;5.438;2023-10-19T10:26:27;6.78;;;2.30;;
80179;SDS011;69505;52.134;5.438;2023-10-19T10:31:49;6.18;;;2.28;;
80179;SDS011;69505;52.134;5.438;2023-10-19T10:37:16;5.32;;;1.52;;
80179;SDS011;69505;52.134;5.438;2023-10-19T10:39:42;5.43;;;2.63;;
80179;SDS011;69505;52.134;5.438;2023-10-19T10:42:11;4.78;;;1.30;;
80179;SDS011;69505;52.134;5.438;2023-10-19T10:44:39;5.47;;;2.13;;
80179;SDS011;69505;52.134;5.438;2023-10-19T10:47:16;7.43;;;2.20;;
80179;SDS011;69505;52.134;5.438;2023-10-19T10:49:57;9.50;;;2.42;;
80179;SDS011;69505;52.134;5.438;2023-10-19T10:52:25;8.63;;;1.55;;
80179;SDS011;69505;52.134;5.438;2023-10-19T10:54:56;8.38;;;2.22;;
80179;SDS011;69505;52.134;5.438;2023-10-19T10:57:44;8.55;;;2.58;;
80179;SDS011;69505;52.134;5.438;2023-10-19T11:00:14;6.43;;;2.58;;
80179;SDS011;69505;52.134;5.438;2023-10-19T11:02:43;5.40;;;2.13;;
80179;SDS011;69505;52.134;5.438;2023-10-19T11:05:18;7.15;;;2.35;;
80179;SDS011;69505;52.134;5.438;2023-10-19T11:10:36;8.40;;;1.80;;
80179;SDS011;69505;52.134;5.438;2023-10-19T11:13:03;7.10;;;2.25;;
80179;SDS011;69505;52.134;5.438;2023-10-19T11:15:32;10.30;;;2.15;;
80179;SDS011;69505;52.134;5.438;2023-10-19T11:18:00;7.68;;;2.40;;
80179;SDS011;69505;52.134;5.438;2023-10-19T11:20:28;7.25;;;2.28;;
80179;SDS011;69505;52.134;5.438;2023-10-19T11:22:55;8.68;;;1.92;;
80179;SDS011;69505;52.134;5.438;2023-10-19T11:25:23;6.65;;;2.22;;
80179;SDS011;69505;52.134;5.438;2023-10-19T11:27:55;11.43;;;1.50;;
80179;SDS011;69505;52.134;5.438;2023-10-19T11:30:27;5.90;;;2.08;;
80179;SDS011;69505;52.134;5.438;2023-10-19T11:32:58;7.38;;;2.08;;
80179;SDS011;69505;52.134;5.438;2023-10-19T11:35:29;5.00;;;2.00;;
80179;SDS011;69505;52.134;5.438;2023-10-19T11:37:58;7.72;;;1.95;;
80179;SDS011;69505;52.134;5.438;2023-10-19T11:42:53;5.28;;;1.83;;
80179;SDS011;69505;52.134;5.438;2023-10-19T11:45:24;6.97;;;1.70;;
80179;SDS011;69505;52.134;5.438;2023-10-19T11:47:52;9.65;;;2.13;;
80179;SDS011;69505;52.134;5.438;2023-10-19T11:50:19;9.88;;;2.42;;
80179;SDS011;69505;52.134;5.438;2023-10-19T11:52:46;6.68;;;2.03;;
80179;SDS011;69505;52.134;5.438;2023-10-19T11:55:13;6.53;;;1.73;;
80179;SDS011;69505;52.134;5.438;2023-10-19T11:57:43;5.25;;;2.08;;
80179;SDS011;69505;52.134;5.438;2023-10-19T12:00:10;7.47;;;1.80;;
80179;SDS011;69505;52.134;5.438;2023-10-19T12:02:40;9.35;;;2.13;;
80179;SDS011;69505;52.134;5.438;2023-10-19T12:05:10;7.38;;;1.98;;
80179;SDS011;69505;52.134;5.438;2023-10-19T12:07:37;5.60;;;1.67;;
80179;SDS011;69505;52.134;5.438;2023-10-19T12:10:05;8.70;;;1.77;;
80179;SDS011;69505;52.134;5.438;2023-10-19T12:12:38;6.68;;;1.40;;
80179;SDS011;69505;52.134;5.438;2023-10-19T12:15:19;7.63;;;1.80;;
80179;SDS011;69505;52.134;5.438;2023-10-19T12:17:48;6.68;;;1.70;;
80179;SDS011;69505;52.134;5.438;2023-10-19T12:20:17;7.13;;;1.80;;
80179;SDS011;69505;52.134;5.438;2023-10-19T12:22:48;6.50;;;2.72;;
80179;SDS011;69505;52.134;5.438;2023-10-19T12:25:20;7.35;;;2.50;;
80179;SDS011;69505;52.134;5.438;2023-10-19T12:28:00;8.18;;;1.85;;
80179;SDS011;69505;52.134;5.438;2023-10-19T12:30:27;6.00;;;1.45;;
80179;SDS011;69505;52.134;5.438;2023-10-19T12:33:01;8.32;;;1.73;;
80179;SDS011;69505;52.134;5.438;2023-10-19T12:35:31;6.32;;;1.88;;
80179;SDS011;69505;52.134;5.438;2023-10-19T12:38:20;10.70;;;1.63;;
80179;SDS011;69505;52.134;5.438;2023-10-19T12:40:47;6.38;;;1.13;;
80179;SDS011;69505;52.134;5.438;2023-10-19T12:43:17;8.23;;;1.95;;
80179;SDS011;69505;52.134;5.438;2023-10-19T12:48:22;8.45;;;1.80;;
80179;SDS011;69505;52.134;5.438;2023-10-19T12:50:51;5.47;;;1.65;;
80179;SDS011;69505;52.134;5.438;2023-10-19T12:53:18;6.82;;;1.90;;
80179;SDS011;69505;52.134;5.438;2023-10-19T12:55:45;6.32;;;1.85;;
80179;SDS011;69505;52.134;5.438;2023-10-19T12:58:11;7.15;;;1.80;;
80179;SDS011;69505;52.134;5.438;2023-10-19T13:00:41;6.20;;;1.75;;
80179;SDS011;69505;52.134;5.438;2023-10-19T13:03:10;11.13;;;1.70;;
80179;SDS011;69505;52.134;5.438;2023-10-19T13:05:41;10.20;;;2.05;;
80179;SDS011;69505;52.134;5.438;2023-10-19T13:08:09;8.32;;;2.20;;
80179;SDS011;69505;52.134;5.438;2023-10-19T13:10:43;10.32;;;2.47;;
80179;SDS011;69505;52.134;5.438;2023-10-19T13:13:11;6.65;;;1.50;;
80179;SDS011;69505;52.134;5.438;2023-10-19T13:15:41;7.50;;;2.15;;
80179;SDS011;69505;52.134;5.438;2023-10-19T13:18:10;10.90;;;2.13;;
80179;SDS011;69505;52.134;5.438;2023-10-19T13:20:40;9.25;;;2.25;;
80179;SDS011;69505;52.134;5.438;2023-10-19T13:23:10;7.45;;;2.00;;
80179;SDS011;69505;52.134;5.438;2023-10-19T13:25:43;6.53;;;1.83;;
80179;SDS011;69505;52.134;5.438;2023-10-19T13:28:13;8.30;;;2.45;;
80179;SDS011;69505;52.134;5.438;2023-10-19T13:30:50;8.85;;;2.67;;
80179;SDS011;69505;52.134;5.438;2023-10-19T13:33:21;4.35;;;2.30;;
80179;SDS011;69505;52.134;5.438;2023-10-19T13:35:49;10.07;;;2.40;;
80179;SDS011;69505;52.134;5.438;2023-10-19T13:38:17;6.65;;;2.47;;
80179;SDS011;69505;52.134;5.438;2023-10-19T13:40:46;6.80;;;2.47;;
80179;SDS011;69505;52.134;5.438;2023-10-19T13:43:13;7.13;;;2.72;;
80179;SDS011;69505;52.134;5.438;2023-10-19T13:45:48;9.05;;;2.42;;
80179;SDS011;69505;52.134;5.438;2023-10-19T13:48:31;5.63;;;2.35;;
80179;SDS011;69505;52.134;5.438;2023-10-19T13:51:00;9.13;;;2.78;;
80179;SDS011;69505;52.134;5.438;2023-10-19T13:53:31;9.93;;;2.70;;
80179;SDS011;69505;52.134;5.438;2023-10-19T13:55:59;12.15;;;3.30;;
80179;SDS011;69505;52.134;5.438;2023-10-19T13:58:25;8.55;;;2.92;;
80179;SDS011;69505;52.134;5.438;2023-10-19T14:00:52;9.10;;;2.65;;
80179;SDS011;69505;52.134;5.438;2023-10-19T14:03:19;9.18;;;2.60;;
80179;SDS011;69505;52.134;5.438;2023-10-19T14:05:47;9.07;;;3.33;;
80179;SDS011;69505;52.134;5.438;2023-10-19T14:08:15;9.18;;;4.40;;
80179;SDS011;69505;52.134;5.438;2023-10-19T14:10:43;7.07;;;3.40;;
80179;SDS011;69505;52.134;5.438;2023-10-19T14:13:11;7.72;;;4.82;;
80179;SDS011;69505;52.134;5.438;2023-10-19T14:15:37;7.78;;;2.75;;
80179;SDS011;69505;52.134;5.438;2023-10-19T14:18:04;6.72;;;2.42;;
80179;SDS011;69505;52.134;5.438;2023-10-19T14:20:31;9.68;;;2.70;;
80179;SDS011;69505;52.134;5.438;2023-10-19T14:23:00;9.50;;;3.42;;
80179;SDS011;69505;52.134;5.438;2023-10-19T14:25:31;10.05;;;3.10;;
80179;SDS011;69505;52.134;5.438;2023-10-19T14:27:58;5.82;;;1.80;;
80179;SDS011;69505;52.134;5.438;2023-10-19T14:30:27;9.02;;;2.38;;
80179;SDS011;69505;52.134;5.438;2023-10-19T14:32:54;11.65;;;2.33;;
80179;SDS011;69505;52.134;5.438;2023-10-19T14:35:22;9.55;;;2.20;;
80179;SDS011;69505;52.134;5.438;2023-10-19T14:37:52;10.80;;;2.63;;
80179;SDS011;69505;52.134;5.438;2023-10-19T14:40:23;13.85;;;2.60;;
80179;SDS011;69505;52.134;5.438;2023-10-19T14:42:53;10.48;;;2.65;;
80179;SDS011;69505;52.134;5.438;2023-10-19T14:45:21;8.35;;;2.00;;
80179;SDS011;69505;52.134;5.438;2023-10-19T14:47:55;8.00;;;2.63;;
80179;SDS011;69505;52.134;5.438;2023-10-19T14:50:28;9.35;;;2.30;;
80179;SDS011;69505;52.134;5.438;2023-10-19T14:52:55;8.43;;;2.40;;
80179;SDS011;69505;52.134;5.438;2023-10-19T14:55:22;9.88;;;2.47;;
80179;SDS011;69505;52.134;5.438;2023-10-19T14:57:50;8.65;;;2.33;;
80179;SDS011;69505;52.134;5.438;2023-10-19T15:00:21;9.13;;;2.75;;
80179;SDS011;69505;52.134;5.438;2023-10-19T15:02:53;10.35;;;2.95;;
80179;SDS011;69505;52.134;5.438;2023-10-19T15:05:27;8.63;;;2.80;;
80179;SDS011;69505;52.134;5.438;2023-10-19T15:07:54;5.88;;;2.33;;
80179;SDS011;69505;52.134;5.438;2023-10-19T15:12:49;7.05;;;2.65;;
80179;SDS011;69505;52.134;5.438;2023-10-19T15:15:16;7.47;;;2.53;;
80179;SDS011;69505;52.134;5.438;2023-10-19T15:17:44;7.47;;;2.22;;
80179;SDS011;69505;52.134;5.438;2023-10-19T15:20:14;11.43;;;3.47;;
80179;SDS011;69505;52.134;5.438;2023-10-19T15:22:41;9.52;;;2.55;;
80179;SDS011;69505;52.134;5.438;2023-10-19T15:25:10;7.03;;;2.55;;
80179;SDS011;69505;52.134;5.438;2023-10-19T15:27:40;12.07;;;2.05;;
80179;SDS011;69505;52.134;5.438;2023-10-19T15:30:08;5.32;;;2.20;;